sensor_id;sensor_type;location;lat;lon;timestamp;pressure;altitude;pressure_sealevel;temperature;humidity
46448;BME280;32145;50.390;30.778;2022-11-14T00:01:47;101192.53;;;5.62;83.43
46448;BME280;32145;50.390;30.778;2022-11-14T00:04:31;101189.31;;;5.58;83.64
46448;BME280;32145;50.390;30.778;2022-11-14T00:07:16;101199.59;;;5.54;83.58
46448;BME280;32145;50.390;30.778;2022-11-14T00:10:00;101193.53;;;5.52;83.51
46448;BME280;32145;50.390;30.778;2022-11-14T00:12:44;101192.00;;;5.50;83.79
46448;BME280;32145;50.390;30.778;2022-11-14T00:15:28;101192.53;;;5.45;83.96
46448;BME280;32145;50.390;30.778;2022-11-14T00:18:14;101195.88;;;5.39;83.73
46448;BME280;32145;50.390;30.778;2022-11-14T00:20:58;101198.56;;;5.31;83.48
46448;BME280;32145;50.390;30.778;2022-11-14T00:23:42;101198.38;;;5.24;83.69
46448;BME280;32145;50.390;30.778;2022-11-14T00:26:26;101191.81;;;5.18;83.74
46448;BME280;32145;50.390;30.778;2022-11-14T00:29:10;101185.75;;;5.16;83.68
46448;BME280;32145;50.390;30.778;2022-11-14T00:31:54;101187.59;;;5.07;83.60
46448;BME280;32145;50.390;30.778;2022-11-14T00:34:40;101189.44;;;4.98;83.37
46448;BME280;32145;50.390;30.778;2022-11-14T00:37:24;101183.03;;;4.91;83.68
46448;BME280;32145;50.390;30.778;2022-11-14T00:40:08;101189.88;;;4.85;83.14
46448;BME280;32145;50.390;30.778;2022-11-14T00:42:53;101197.75;;;4.79;83.60
46448;BME280;32145;50.390;30.778;2022-11-14T00:45:36;101189.84;;;4.69;83.34
46448;BME280;32145;50.390;30.778;2022-11-14T00:48:20;101191.63;;;4.60;83.10
46448;BME280;32145;50.390;30.778;2022-11-14T00:51:06;101195.16;;;4.52;83.27
46448;BME280;32145;50.390;30.778;2022-11-14T00:53:51;101192.94;;;4.47;83.37
46448;BME280;32145;50.390;30.778;2022-11-14T00:56:35;101199.13;;;4.40;83.30
46448;BME280;32145;50.390;30.778;2022-11-14T00:59:19;101197.91;;;4.34;83.45
46448;BME280;32145;50.390;30.778;2022-11-14T01:02:03;101204.22;;;4.24;83.19
46448;BME280;32145;50.390;30.778;2022-11-14T01:04:47;101194.44;;;4.15;83.16
46448;BME280;32145;50.390;30.778;2022-11-14T01:07:32;101200.13;;;4.12;83.26
46448;BME280;32145;50.390;30.778;2022-11-14T01:10:17;101197.75;;;4.09;83.42
46448;BME280;32145;50.390;30.778;2022-11-14T01:13:01;101195.00;;;4.00;82.93
46448;BME280;32145;50.390;30.778;2022-11-14T01:15:47;101197.34;;;3.95;83.29
46448;BME280;32145;50.390;30.778;2022-11-14T01:18:32;101202.63;;;3.87;83.27
46448;BME280;32145;50.390;30.778;2022-11-14T01:21:17;101205.13;;;3.80;83.06
46448;BME280;32145;50.390;30.778;2022-11-14T01:24:02;101210.09;;;3.75;83.15
46448;BME280;32145;50.390;30.778;2022-11-14T01:26:47;101205.19;;;3.70;82.96
46448;BME280;32145;50.390;30.778;2022-11-14T01:29:31;101210.88;;;3.67;83.00
46448;BME280;32145;50.390;30.778;2022-11-14T01:32:15;101211.31;;;3.63;83.16
46448;BME280;32145;50.390;30.778;2022-11-14T01:34:59;101216.16;;;3.59;82.91
46448;BME280;32145;50.390;30.778;2022-11-14T01:37:43;101211.41;;;3.53;82.70
46448;BME280;32145;50.390;30.778;2022-11-14T01:40:29;101213.72;;;3.47;83.02
46448;BME280;32145;50.390;30.778;2022-11-14T01:43:24;101206.13;;;3.43;83.07
46448;BME280;32145;50.390;30.778;2022-11-14T01:46:11;101212.63;;;3.40;82.99
46448;BME280;32145;50.390;30.778;2022-11-14T01:48:59;101216.47;;;3.38;82.90
46448;BME280;32145;50.390;30.778;2022-11-14T01:51:47;101212.56;;;3.32;83.26
46448;BME280;32145;50.390;30.778;2022-11-14T01:54:33;101218.94;;;3.31;82.86
46448;BME280;32145;50.390;30.778;2022-11-14T01:57:25;101217.22;;;3.30;82.99
46448;BME280;32145;50.390;30.778;2022-11-14T02:00:12;101211.84;;;3.30;83.16
46448;BME280;32145;50.390;30.778;2022-11-14T02:02:57;101210.19;;;3.29;83.29
46448;BME280;32145;50.390;30.778;2022-11-14T02:05:44;101218.53;;;3.26;83.24
46448;BME280;32145;50.390;30.778;2022-11-14T02:08:29;101212.47;;;3.24;83.00
46448;BME280;32145;50.390;30.778;2022-11-14T02:11:13;101211.09;;;3.19;82.81
46448;BME280;32145;50.390;30.778;2022-11-14T02:13:58;101202.69;;;3.14;82.68
46448;BME280;32145;50.390;30.778;2022-11-14T02:16:43;101208.72;;;3.16;82.80
46448;BME280;32145;50.390;30.778;2022-11-14T02:19:40;101211.09;;;3.19;83.17
46448;BME280;32145;50.390;30.778;2022-11-14T02:22:25;101208.03;;;3.14;83.52
46448;BME280;32145;50.390;30.778;2022-11-14T02:25:12;101208.50;;;3.09;83.35
46448;BME280;32145;50.390;30.778;2022-11-14T02:27:58;101209.63;;;3.07;83.57
46448;BME280;32145;50.390;30.778;2022-11-14T02:30:44;101206.41;;;3.03;83.20
46448;BME280;32145;50.390;30.778;2022-11-14T02:33:28;101217.25;;;3.02;83.40
46448;BME280;32145;50.390;30.778;2022-11-14T02:36:12;101213.47;;;3.04;83.37
46448;BME280;32145;50.390;30.778;2022-11-14T02:38:57;101216.38;;;3.11;83.57
46448;BME280;32145;50.390;30.778;2022-11-14T02:41:41;101213.06;;;3.17;84.44
46448;BME280;32145;50.390;30.778;2022-11-14T02:44:26;101204.59;;;3.22;84.23
46448;BME280;32145;50.390;30.778;2022-11-14T02:47:10;101212.47;;;3.24;84.25
46448;BME280;32145;50.390;30.778;2022-11-14T02:49:54;101209.81;;;3.24;84.05
46448;BME280;32145;50.390;30.778;2022-11-14T02:52:38;101208.41;;;3.19;84.09
46448;BME280;32145;50.390;30.778;2022-11-14T02:55:23;101218.75;;;3.14;83.55
46448;BME280;32145;50.390;30.778;2022-11-14T02:58:07;101219.34;;;3.08;83.54
46448;BME280;32145;50.390;30.778;2022-11-14T03:00:52;101218.56;;;2.97;83.17
46448;BME280;32145;50.390;30.778;2022-11-14T03:03:36;101217.19;;;2.93;83.05
46448;BME280;32145;50.390;30.778;2022-11-14T03:06:20;101213.56;;;2.85;82.82
46448;BME280;32145;50.390;30.778;2022-11-14T03:09:04;101213.31;;;2.78;82.79
46448;BME280;32145;50.390;30.778;2022-11-14T03:11:49;101217.59;;;2.70;82.70
46448;BME280;32145;50.390;30.778;2022-11-14T03:14:33;101209.28;;;2.64;82.83
46448;BME280;32145;50.390;30.778;2022-11-14T03:17:18;101202.53;;;2.60;82.55
46448;BME280;32145;50.390;30.778;2022-11-14T03:20:02;101210.03;;;2.56;82.69
46448;BME280;32145;50.390;30.778;2022-11-14T03:22:47;101206.97;;;2.51;82.71
46448;BME280;32145;50.390;30.778;2022-11-14T03:25:31;101216.97;;;2.49;82.85
46448;BME280;32145;50.390;30.778;2022-11-14T03:28:16;101219.66;;;2.49;82.64
46448;BME280;32145;50.390;30.778;2022-11-14T03:31:00;101221.31;;;2.50;83.32
46448;BME280;32145;50.390;30.778;2022-11-14T03:33:44;101221.91;;;2.53;82.98
46448;BME280;32145;50.390;30.778;2022-11-14T03:36:28;101226.97;;;2.56;83.64
46448;BME280;32145;50.390;30.778;2022-11-14T03:39:12;101229.19;;;2.61;83.98
46448;BME280;32145;50.390;30.778;2022-11-14T03:41:56;101223.53;;;2.64;83.88
46448;BME280;32145;50.390;30.778;2022-11-14T03:44:41;101226.22;;;2.64;83.54
46448;BME280;32145;50.390;30.778;2022-11-14T03:47:25;101225.81;;;2.59;83.44
46448;BME280;32145;50.390;30.778;2022-11-14T03:50:09;101225.69;;;2.61;83.77
46448;BME280;32145;50.390;30.778;2022-11-14T03:52:53;101223.00;;;2.61;83.64
46448;BME280;32145;50.390;30.778;2022-11-14T03:55:37;101224.28;;;2.56;83.65
46448;BME280;32145;50.390;30.778;2022-11-14T03:58:21;101222.88;;;2.52;83.81
46448;BME280;32145;50.390;30.778;2022-11-14T04:01:06;101223.19;;;2.49;83.16
46448;BME280;32145;50.390;30.778;2022-11-14T04:03:51;101220.94;;;2.44;83.26
46448;BME280;32145;50.390;30.778;2022-11-14T04:06:35;101219.41;;;2.42;83.45
46448;BME280;32145;50.390;30.778;2022-11-14T04:09:19;101220.81;;;2.36;83.31
46448;BME280;32145;50.390;30.778;2022-11-14T04:12:03;101222.94;;;2.32;83.22
46448;BME280;32145;50.390;30.778;2022-11-14T04:14:47;101218.03;;;2.28;83.14
46448;BME280;32145;50.390;30.778;2022-11-14T04:17:32;101224.66;;;2.24;83.29
46448;BME280;32145;50.390;30.778;2022-11-14T04:20:16;101222.28;;;2.21;83.37
46448;BME280;32145;50.390;30.778;2022-11-14T04:23:00;101229.59;;;2.18;83.36
46448;BME280;32145;50.390;30.778;2022-11-14T04:25:45;101230.72;;;2.16;83.20
46448;BME280;32145;50.390;30.778;2022-11-14T04:28:29;101238.75;;;2.16;82.85
46448;BME280;32145;50.390;30.778;2022-11-14T04:31:13;101235.41;;;2.14;83.31
46448;BME280;32145;50.390;30.778;2022-11-14T04:33:59;101236.41;;;2.13;83.29
46448;BME280;32145;50.390;30.778;2022-11-14T04:36:43;101232.16;;;2.10;83.04
46448;BME280;32145;50.390;30.778;2022-11-14T04:39:27;101241.44;;;2.06;83.03
46448;BME280;32145;50.390;30.778;2022-11-14T04:42:11;101240.06;;;2.02;82.81
46448;BME280;32145;50.390;30.778;2022-11-14T04:44:55;101243.72;;;2.01;82.94
46448;BME280;32145;50.390;30.778;2022-11-14T04:47:40;101250.75;;;2.02;82.89
46448;BME280;32145;50.390;30.778;2022-11-14T04:50:26;101249.06;;;2.01;83.21
46448;BME280;32145;50.390;30.778;2022-11-14T04:53:10;101245.69;;;1.99;83.49
46448;BME280;32145;50.390;30.778;2022-11-14T04:55:54;101249.63;;;1.95;83.18
46448;BME280;32145;50.390;30.778;2022-11-14T04:58:38;101254.00;;;1.96;83.31
46448;BME280;32145;50.390;30.778;2022-11-14T05:01:22;101261.31;;;1.93;83.13
46448;BME280;32145;50.390;30.778;2022-11-14T05:04:06;101260.19;;;1.96;83.04
46448;BME280;32145;50.390;30.778;2022-11-14T05:06:52;101260.63;;;2.01;83.50
46448;BME280;32145;50.390;30.778;2022-11-14T05:09:36;101262.28;;;2.12;83.94
46448;BME280;32145;50.390;30.778;2022-11-14T05:12:20;101259.75;;;2.21;84.21
46448;BME280;32145;50.390;30.778;2022-11-14T05:15:05;101268.47;;;2.23;83.72
46448;BME280;32145;50.390;30.778;2022-11-14T05:17:49;101270.03;;;2.25;84.39
46448;BME280;32145;50.390;30.778;2022-11-14T05:20:33;101271.09;;;2.32;84.37
46448;BME280;32145;50.390;30.778;2022-11-14T05:23:20;101272.69;;;2.35;84.62
46448;BME280;32145;50.390;30.778;2022-11-14T05:26:06;101283.66;;;2.32;84.46
46448;BME280;32145;50.390;30.778;2022-11-14T05:28:51;101279.31;;;2.31;83.81
46448;BME280;32145;50.390;30.778;2022-11-14T05:31:34;101276.63;;;2.31;83.98
46448;BME280;32145;50.390;30.778;2022-11-14T05:34:18;101281.00;;;2.32;83.88
46448;BME280;32145;50.390;30.778;2022-11-14T05:37:02;101270.97;;;2.34;84.08
46448;BME280;32145;50.390;30.778;2022-11-14T05:39:48;101281.66;;;2.34;84.16
46448;BME280;32145;50.390;30.778;2022-11-14T05:42:32;101277.56;;;2.40;83.79
46448;BME280;32145;50.390;30.778;2022-11-14T05:45:16;101275.72;;;2.50;84.66
46448;BME280;32145;50.390;30.778;2022-11-14T05:48:00;101284.00;;;2.57;84.26
46448;BME280;32145;50.390;30.778;2022-11-14T05:50:44;101284.13;;;2.65;84.30
46448;BME280;32145;50.390;30.778;2022-11-14T05:53:29;101279.59;;;2.76;84.92
46448;BME280;32145;50.390;30.778;2022-11-14T05:56:15;101286.72;;;2.85;84.61
46448;BME280;32145;50.390;30.778;2022-11-14T05:58:59;101294.97;;;3.02;84.90
46448;BME280;32145;50.390;30.778;2022-11-14T06:01:43;101292.09;;;3.13;84.95
46448;BME280;32145;50.390;30.778;2022-11-14T06:04:27;101293.75;;;3.24;85.04
46448;BME280;32145;50.390;30.778;2022-11-14T06:07:11;101294.50;;;3.34;85.32
46448;BME280;32145;50.390;30.778;2022-11-14T06:09:55;101299.81;;;3.44;85.29
46448;BME280;32145;50.390;30.778;2022-11-14T06:12:40;101298.06;;;3.53;85.56
46448;BME280;32145;50.390;30.778;2022-11-14T06:15:24;101297.16;;;3.63;85.06
46448;BME280;32145;50.390;30.778;2022-11-14T06:18:08;101302.75;;;3.69;84.95
46448;BME280;32145;50.390;30.778;2022-11-14T06:20:52;101301.84;;;3.79;84.86
46448;BME280;32145;50.390;30.778;2022-11-14T06:23:36;101307.94;;;3.89;84.68
46448;BME280;32145;50.390;30.778;2022-11-14T06:26:22;101313.88;;;3.93;84.60
46448;BME280;32145;50.390;30.778;2022-11-14T06:29:09;101300.53;;;4.01;84.59
46448;BME280;32145;50.390;30.778;2022-11-14T06:31:53;101309.94;;;4.05;84.68
46448;BME280;32145;50.390;30.778;2022-11-14T06:34:37;101304.13;;;4.10;84.70
46448;BME280;32145;50.390;30.778;2022-11-14T06:37:21;101306.16;;;4.16;84.32
46448;BME280;32145;50.390;30.778;2022-11-14T06:40:06;101306.53;;;4.21;84.29
46448;BME280;32145;50.390;30.778;2022-11-14T06:42:54;101302.22;;;4.29;84.12
46448;BME280;32145;50.390;30.778;2022-11-14T06:45:39;101300.59;;;4.36;84.03
46448;BME280;32145;50.390;30.778;2022-11-14T06:48:23;101298.47;;;4.40;84.11
46448;BME280;32145;50.390;30.778;2022-11-14T06:51:09;101296.00;;;4.46;83.95
46448;BME280;32145;50.390;30.778;2022-11-14T06:53:53;101298.03;;;4.53;83.85
46448;BME280;32145;50.390;30.778;2022-11-14T06:56:37;101312.50;;;4.60;83.76
46448;BME280;32145;50.390;30.778;2022-11-14T06:59:21;101316.25;;;4.67;83.60
46448;BME280;32145;50.390;30.778;2022-11-14T07:02:10;101307.22;;;4.76;83.54
46448;BME280;32145;50.390;30.778;2022-11-14T07:04:54;101313.81;;;4.82;83.18
46448;BME280;32145;50.390;30.778;2022-11-14T07:07:38;101311.66;;;4.86;83.01
46448;BME280;32145;50.390;30.778;2022-11-14T07:10:22;101319.41;;;4.89;83.00
46448;BME280;32145;50.390;30.778;2022-11-14T07:13:06;101324.44;;;4.92;82.72
46448;BME280;32145;50.390;30.778;2022-11-14T07:15:50;101316.75;;;4.97;82.66
46448;BME280;32145;50.390;30.778;2022-11-14T07:18:36;101324.16;;;5.03;82.49
46448;BME280;32145;50.390;30.778;2022-11-14T07:21:20;101331.06;;;5.06;82.05
46448;BME280;32145;50.390;30.778;2022-11-14T07:24:04;101326.06;;;5.11;82.03
46448;BME280;32145;50.390;30.778;2022-11-14T07:26:49;101322.41;;;5.21;81.64
46448;BME280;32145;50.390;30.778;2022-11-14T07:29:32;101326.28;;;5.26;81.67
46448;BME280;32145;50.390;30.778;2022-11-14T07:32:16;101329.31;;;5.32;81.16
46448;BME280;32145;50.390;30.778;2022-11-14T07:35:02;101332.19;;;5.38;81.08
46448;BME280;32145;50.390;30.778;2022-11-14T07:37:46;101334.41;;;5.43;81.56
46448;BME280;32145;50.390;30.778;2022-11-14T07:40:30;101326.84;;;5.47;81.09
46448;BME280;32145;50.390;30.778;2022-11-14T07:43:14;101332.59;;;5.52;80.48
46448;BME280;32145;50.390;30.778;2022-11-14T07:45:59;101329.56;;;5.55;80.61
46448;BME280;32145;50.390;30.778;2022-11-14T07:48:44;101330.22;;;5.57;80.09
46448;BME280;32145;50.390;30.778;2022-11-14T07:51:29;101329.06;;;5.60;80.40
46448;BME280;32145;50.390;30.778;2022-11-14T07:54:13;101325.19;;;5.62;80.01
46448;BME280;32145;50.390;30.778;2022-11-14T07:56:57;101322.19;;;5.65;80.27
46448;BME280;32145;50.390;30.778;2022-11-14T07:59:41;101324.38;;;5.70;79.69
46448;BME280;32145;50.390;30.778;2022-11-14T08:02:25;101320.69;;;5.71;79.82
46448;BME280;32145;50.390;30.778;2022-11-14T08:05:09;101316.66;;;5.75;79.06
46448;BME280;32145;50.390;30.778;2022-11-14T08:07:54;101310.09;;;5.78;79.25
46448;BME280;32145;50.390;30.778;2022-11-14T08:10:39;101308.41;;;5.85;79.37
46448;BME280;32145;50.390;30.778;2022-11-14T08:13:23;101305.72;;;5.93;78.58
46448;BME280;32145;50.390;30.778;2022-11-14T08:16:08;101304.53;;;5.96;78.82
46448;BME280;32145;50.390;30.778;2022-11-14T08:18:52;101302.53;;;5.98;79.07
46448;BME280;32145;50.390;30.778;2022-11-14T08:21:36;101290.59;;;6.01;78.62
46448;BME280;32145;50.390;30.778;2022-11-14T08:24:22;101302.53;;;5.98;78.07
46448;BME280;32145;50.390;30.778;2022-11-14T08:27:06;101291.44;;;6.01;77.51
46448;BME280;32145;50.390;30.778;2022-11-14T08:29:50;101294.97;;;6.10;77.99
46448;BME280;32145;50.390;30.778;2022-11-14T08:32:35;101293.81;;;6.21;77.35
46448;BME280;32145;50.390;30.778;2022-11-14T08:35:19;101294.63;;;6.30;77.26
46448;BME280;32145;50.390;30.778;2022-11-14T08:38:03;101288.75;;;6.35;77.10
46448;BME280;32145;50.390;30.778;2022-11-14T08:40:48;101293.81;;;6.38;76.27
46448;BME280;32145;50.390;30.778;2022-11-14T08:43:32;101301.03;;;6.37;76.48
46448;BME280;32145;50.390;30.778;2022-11-14T08:46:16;101299.19;;;6.38;75.27
46448;BME280;32145;50.390;30.778;2022-11-14T08:49:00;101301.19;;;6.36;74.73
46448;BME280;32145;50.390;30.778;2022-11-14T08:51:44;101291.09;;;6.38;74.69
46448;BME280;32145;50.390;30.778;2022-11-14T08:54:28;101291.59;;;6.41;74.75
46448;BME280;32145;50.390;30.778;2022-11-14T08:57:13;101286.88;;;6.43;74.30
46448;BME280;32145;50.390;30.778;2022-11-14T08:59:57;101277.44;;;6.48;74.05
46448;BME280;32145;50.390;30.778;2022-11-14T09:02:41;101289.06;;;6.56;74.04
46448;BME280;32145;50.390;30.778;2022-11-14T09:05:26;101283.47;;;6.66;73.88
46448;BME280;32145;50.390;30.778;2022-11-14T09:08:10;101277.53;;;6.71;73.59
46448;BME280;32145;50.390;30.778;2022-11-14T09:10:54;101278.38;;;6.80;73.40
46448;BME280;32145;50.390;30.778;2022-11-14T09:13:40;101277.69;;;6.86;72.92
46448;BME280;32145;50.390;30.778;2022-11-14T09:16:23;101279.34;;;6.87;72.53
46448;BME280;32145;50.390;30.778;2022-11-14T09:19:07;101280.56;;;6.85;71.73
46448;BME280;32145;50.390;30.778;2022-11-14T09:21:52;101273.47;;;6.83;71.11
46448;BME280;32145;50.390;30.778;2022-11-14T09:24:36;101266.69;;;6.88;71.92
46448;BME280;32145;50.390;30.778;2022-11-14T09:27:20;101264.16;;;6.94;71.80
46448;BME280;32145;50.390;30.778;2022-11-14T09:30:06;101263.59;;;7.07;71.93
46448;BME280;32145;50.390;30.778;2022-11-14T09:32:51;101262.91;;;7.14;71.24
46448;BME280;32145;50.390;30.778;2022-11-14T09:35:35;101258.69;;;7.11;71.01
46448;BME280;32145;50.390;30.778;2022-11-14T09:38:19;101260.88;;;7.16;71.19
46448;BME280;32145;50.390;30.778;2022-11-14T09:41:15;101262.84;;;7.22;70.81
46448;BME280;32145;50.390;30.778;2022-11-14T09:44:28;101261.81;;;7.23;70.49
46448;BME280;32145;50.390;30.778;2022-11-14T09:47:19;101259.63;;;7.27;70.55
46448;BME280;32145;50.390;30.778;2022-11-14T09:50:10;101256.38;;;7.31;69.87
46448;BME280;32145;50.390;30.778;2022-11-14T09:52:56;101258.72;;;7.34;70.47
46448;BME280;32145;50.390;30.778;2022-11-14T09:55:41;101260.03;;;7.39;70.33
46448;BME280;32145;50.390;30.778;2022-11-14T09:58:26;101261.38;;;7.43;69.74
46448;BME280;32145;50.390;30.778;2022-11-14T10:01:14;101245.84;;;7.45;70.04
46448;BME280;32145;50.390;30.778;2022-11-14T10:04:10;101254.06;;;7.52;69.76
46448;BME280;32145;50.390;30.778;2022-11-14T10:07:04;101250.34;;;7.53;68.93
46448;BME280;32145;50.390;30.778;2022-11-14T10:09:57;101250.50;;;7.59;69.63
46448;BME280;32145;50.390;30.778;2022-11-14T10:12:54;101243.72;;;7.64;68.91
46448;BME280;32145;50.390;30.778;2022-11-14T10:15:45;101252.09;;;7.69;69.17
46448;BME280;32145;50.390;30.778;2022-11-14T10:18:47;101243.66;;;7.72;68.48
46448;BME280;32145;50.390;30.778;2022-11-14T10:21:43;101249.41;;;7.69;68.24
46448;BME280;32145;50.390;30.778;2022-11-14T10:27:54;101241.06;;;7.55;67.93
46448;BME280;32145;50.390;30.778;2022-11-14T10:30:47;101242.41;;;7.51;67.69
46448;BME280;32145;50.390;30.778;2022-11-14T10:33:41;101240.75;;;7.50;68.32
46448;BME280;32145;50.390;30.778;2022-11-14T10:36:43;101237.34;;;7.56;68.37
46448;BME280;32145;50.390;30.778;2022-11-14T10:39:31;101234.28;;;7.59;67.30
46448;BME280;32145;50.390;30.778;2022-11-14T10:42:23;101235.97;;;7.60;67.22
46448;BME280;32145;50.390;30.778;2022-11-14T10:45:16;101233.91;;;7.63;67.27
46448;BME280;32145;50.390;30.778;2022-11-14T10:48:06;101235.63;;;7.64;67.00
46448;BME280;32145;50.390;30.778;2022-11-14T10:50:54;101226.13;;;7.68;67.30
46448;BME280;32145;50.390;30.778;2022-11-14T10:53:49;101223.72;;;7.73;67.49
46448;BME280;32145;50.390;30.778;2022-11-14T10:56:45;101221.13;;;7.80;66.97
46448;BME280;32145;50.390;30.778;2022-11-14T10:59:29;101219.63;;;7.77;67.13
46448;BME280;32145;50.390;30.778;2022-11-14T11:02:14;101211.72;;;7.76;67.02
46448;BME280;32145;50.390;30.778;2022-11-14T11:05:04;101211.19;;;7.80;67.47
46448;BME280;32145;50.390;30.778;2022-11-14T11:07:57;101218.91;;;7.83;67.18
46448;BME280;32145;50.390;30.778;2022-11-14T11:10:45;101211.47;;;7.85;67.17
46448;BME280;32145;50.390;30.778;2022-11-14T11:13:49;101209.72;;;7.93;67.27
46448;BME280;32145;50.390;30.778;2022-11-14T11:16:37;101215.41;;;7.98;67.36
46448;BME280;32145;50.390;30.778;2022-11-14T11:19:23;101207.28;;;7.98;66.98
46448;BME280;32145;50.390;30.778;2022-11-14T11:22:24;101221.28;;;8.02;67.09
46448;BME280;32145;50.390;30.778;2022-11-14T11:25:23;101220.44;;;8.01;67.06
46448;BME280;32145;50.390;30.778;2022-11-14T11:28:11;101220.44;;;8.01;67.33
46448;BME280;32145;50.390;30.778;2022-11-14T11:30:57;101213.53;;;7.98;67.04
46448;BME280;32145;50.390;30.778;2022-11-14T11:33:42;101208.59;;;8.02;67.12
46448;BME280;32145;50.390;30.778;2022-11-14T11:36:27;101210.47;;;8.02;66.67
46448;BME280;32145;50.390;30.778;2022-11-14T11:39:21;101218.59;;;8.02;66.03
46448;BME280;32145;50.390;30.778;2022-11-14T11:42:10;101209.16;;;7.97;66.02
46448;BME280;32145;50.390;30.778;2022-11-14T11:45:01;101211.69;;;7.99;66.34
46448;BME280;32145;50.390;30.778;2022-11-14T11:47:53;101205.53;;;8.05;66.57
46448;BME280;32145;50.390;30.778;2022-11-14T11:50:39;101208.16;;;8.13;66.41
46448;BME280;32145;50.390;30.778;2022-11-14T11:53:27;101207.44;;;8.20;66.33
46448;BME280;32145;50.390;30.778;2022-11-14T11:56:19;101217.47;;;8.26;65.51
46448;BME280;32145;50.390;30.778;2022-11-14T11:59:18;101205.94;;;8.32;65.72
46448;BME280;32145;50.390;30.778;2022-11-14T12:02:19;101203.41;;;8.46;65.57
46448;BME280;32145;50.390;30.778;2022-11-14T12:05:04;101199.13;;;8.51;65.43
46448;BME280;32145;50.390;30.778;2022-11-14T12:07:55;101201.13;;;8.58;65.20
46448;BME280;32145;50.390;30.778;2022-11-14T12:10:41;101204.28;;;8.61;64.95
46448;BME280;32145;50.390;30.778;2022-11-14T12:17:22;101191.25;;;8.65;64.71
46448;BME280;32145;50.390;30.778;2022-11-14T12:20:29;101191.31;;;8.72;64.85
46448;BME280;32145;50.390;30.778;2022-11-14T12:23:30;101190.56;;;8.78;64.71
46448;BME280;32145;50.390;30.778;2022-11-14T12:26:34;101191.59;;;8.77;64.80
46448;BME280;32145;50.390;30.778;2022-11-14T12:29:37;101197.94;;;8.69;64.69
46448;BME280;32145;50.390;30.778;2022-11-14T12:32:31;101188.72;;;8.63;64.49
46448;BME280;32145;50.390;30.778;2022-11-14T12:35:20;101193.09;;;8.64;64.93
46448;BME280;32145;50.390;30.778;2022-11-14T12:38:13;101191.06;;;8.67;64.40
46448;BME280;32145;50.390;30.778;2022-11-14T12:40:59;101185.34;;;8.46;64.71
46448;BME280;32145;50.390;30.778;2022-11-14T12:43:44;101187.88;;;8.33;65.12
46448;BME280;32145;50.390;30.778;2022-11-14T12:50:27;101180.69;;;8.25;65.45
46448;BME280;32145;50.390;30.778;2022-11-14T12:53:40;101178.56;;;8.35;65.74
46448;BME280;32145;50.390;30.778;2022-11-14T12:56:58;101186.19;;;8.47;65.56
46448;BME280;32145;50.390;30.778;2022-11-14T12:59:49;101177.06;;;8.48;65.43
46448;BME280;32145;50.390;30.778;2022-11-14T13:03:02;101180.06;;;8.53;65.40
46448;BME280;32145;50.390;30.778;2022-11-14T13:06:00;101174.06;;;8.43;65.31
46448;BME280;32145;50.390;30.778;2022-11-14T13:09:33;101176.69;;;8.36;65.90
46448;BME280;32145;50.390;30.778;2022-11-14T13:12:25;101174.91;;;8.28;66.02
46448;BME280;32145;50.390;30.778;2022-11-14T13:15:22;101164.22;;;8.20;65.86
46448;BME280;32145;50.390;30.778;2022-11-14T13:18:23;101174.06;;;8.12;65.79
46448;BME280;32145;50.390;30.778;2022-11-14T13:21:27;101166.78;;;7.98;65.88
46448;BME280;32145;50.390;30.778;2022-11-14T13:24:13;101179.81;;;7.79;65.96
46448;BME280;32145;50.390;30.778;2022-11-14T13:27:24;101175.66;;;7.68;66.29
46448;BME280;32145;50.390;30.778;2022-11-14T13:30:08;101185.91;;;7.58;66.79
46448;BME280;32145;50.390;30.778;2022-11-14T13:32:53;101192.19;;;7.50;66.95
46448;BME280;32145;50.390;30.778;2022-11-14T13:36:05;101174.22;;;7.42;67.17
46448;BME280;32145;50.390;30.778;2022-11-14T13:39:04;101179.00;;;7.32;67.48
46448;BME280;32145;50.390;30.778;2022-11-14T13:42:04;101180.44;;;7.19;67.76
46448;BME280;32145;50.390;30.778;2022-11-14T13:51:38;101172.25;;;6.73;68.16
46448;BME280;32145;50.390;30.778;2022-11-14T13:54:23;101178.03;;;6.61;69.32
46448;BME280;32145;50.390;30.778;2022-11-14T13:57:14;101182.66;;;6.52;68.99
46448;BME280;32145;50.390;30.778;2022-11-14T14:00:08;101174.25;;;6.39;69.67
46448;BME280;32145;50.390;30.778;2022-11-14T14:06:16;101177.69;;;6.16;70.02
46448;BME280;32145;50.390;30.778;2022-11-14T14:09:16;101180.03;;;6.02;69.97
46448;BME280;32145;50.390;30.778;2022-11-14T14:12:22;101184.44;;;5.87;70.65
46448;BME280;32145;50.390;30.778;2022-11-14T14:15:19;101179.41;;;5.75;70.87
46448;BME280;32145;50.390;30.778;2022-11-14T14:18:10;101178.91;;;5.63;70.80
46448;BME280;32145;50.390;30.778;2022-11-14T14:21:02;101180.44;;;5.49;71.64
46448;BME280;32145;50.390;30.778;2022-11-14T14:23:52;101183.78;;;5.35;71.81
46448;BME280;32145;50.390;30.778;2022-11-14T14:26:50;101189.63;;;5.22;71.66
46448;BME280;32145;50.390;30.778;2022-11-14T14:29:44;101181.22;;;5.08;72.14
46448;BME280;32145;50.390;30.778;2022-11-14T14:32:35;101186.75;;;4.98;72.33
46448;BME280;32145;50.390;30.778;2022-11-14T14:35:24;101180.16;;;4.93;72.52
46448;BME280;32145;50.390;30.778;2022-11-14T14:38:10;101184.00;;;4.82;72.78
46448;BME280;32145;50.390;30.778;2022-11-14T14:40:54;101185.31;;;4.69;73.04
46448;BME280;32145;50.390;30.778;2022-11-14T14:43:40;101187.13;;;4.60;73.18
46448;BME280;32145;50.390;30.778;2022-11-14T14:46:28;101187.91;;;4.53;73.43
46448;BME280;32145;50.390;30.778;2022-11-14T14:49:18;101189.59;;;4.45;73.69
46448;BME280;32145;50.390;30.778;2022-11-14T14:52:18;101182.81;;;4.41;74.17
46448;BME280;32145;50.390;30.778;2022-11-14T14:55:03;101179.94;;;4.34;74.04
46448;BME280;32145;50.390;30.778;2022-11-14T14:57:48;101177.91;;;4.28;74.11